createdAt,value
2018-07-02T00:00:23.204Z,89.50
2018-07-02T00:02:52.249Z,89.80
2018-07-02T00:05:22.179Z,90.10
2018-07-02T00:07:51.428Z,90.20
2018-07-02T00:10:20.477Z,90.20
2018-07-02T00:12:49.537Z,90.20
2018-07-02T00:15:18.572Z,90.50
2018-07-02T00:20:16.249Z,90.70
2018-07-02T00:22:45.294Z,90.50
2018-07-02T00:25:14.316Z,90.80
2018-07-02T00:27:43.320Z,90.80
2018-07-02T00:30:12.694Z,91.00
2018-07-02T00:32:41.692Z,91.00
2018-07-02T00:35:10.701Z,91.20
2018-07-02T00:37:40.022Z,90.90
2018-07-02T00:40:09.016Z,90.90
2018-07-02T00:42:38.074Z,91.20
2018-07-02T00:45:07.245Z,91.40
2018-07-02T00:47:36.249Z,91.30
2018-07-02T00:50:05.293Z,90.90
2018-07-02T00:52:34.403Z,91.10
2018-07-02T00:55:03.449Z,92.30
2018-07-02T00:57:32.453Z,92.60
2018-07-02T01:00:13.017Z,92.10
2018-07-02T01:02:42.185Z,92.70
2018-07-02T01:05:11.496Z,92.60
2018-07-02T01:07:40.848Z,92.40
2018-07-02T01:10:09.840Z,92.90
2018-07-02T01:12:39.160Z,92.70
2018-07-02T01:15:08.166Z,92.70
2018-07-02T01:17:37.155Z,93.00
2018-07-02T01:20:06.198Z,93.30
2018-07-02T01:22:35.193Z,93.60
2018-07-02T01:25:04.237Z,94.00
2018-07-02T01:27:34.604Z,93.90
2018-07-02T01:30:04.428Z,94.00
2018-07-02T01:32:33.425Z,94.00
2018-07-02T01:35:02.565Z,94.10
2018-07-02T01:37:31.597Z,94.40
2018-07-02T01:40:00.829Z,94.50
2018-07-02T01:42:29.833Z,94.50
2018-07-02T01:44:58.828Z,94.50
2018-07-02T01:47:27.844Z,94.60
2018-07-02T01:49:56.840Z,94.60
2018-07-02T01:52:25.868Z,94.70
2018-07-02T01:54:55.067Z,94.50
2018-07-02T01:57:24.112Z,94.70
2018-07-02T01:59:53.108Z,94.80
2018-07-02T02:02:22.159Z,94.90
2018-07-02T02:04:51.153Z,95.00
2018-07-02T02:07:20.192Z,95.20
2018-07-02T02:09:49.264Z,94.90
2018-07-02T02:12:25.101Z,94.50
2018-07-02T02:14:54.360Z,94.90
2018-07-02T02:17:23.352Z,95.30
2018-07-02T02:19:52.348Z,95.20
2018-07-02T02:22:21.384Z,95.20
2018-07-02T02:24:50.580Z,94.70
2018-07-02T02:27:19.783Z,94.50
2018-07-02T02:29:49.064Z,94.30
2018-07-02T02:32:18.055Z,94.50
2018-07-02T02:34:47.080Z,94.00
2018-07-02T02:37:16.293Z,94.80
2018-07-02T02:39:45.358Z,95.20
2018-07-02T02:42:14.617Z,95.60
2018-07-02T02:44:43.915Z,95.40
2018-07-02T02:47:13.204Z,95.20
2018-07-02T02:49:42.224Z,96.30
2018-07-02T02:52:11.223Z,95.80
2018-07-02T02:54:40.421Z,96.00
2018-07-02T02:57:09.456Z,95.90
2018-07-02T02:59:38.487Z,96.10
2018-07-02T03:02:07.825Z,95.70
2018-07-02T03:04:36.865Z,96.00
2018-07-02T03:07:06.513Z,96.20
2018-07-02T03:09:35.938Z,96.30
2018-07-02T03:12:04.902Z,96.20
2018-07-02T03:14:33.891Z,96.30
2018-07-02T03:17:02.920Z,96.30
2018-07-02T03:19:31.957Z,96.00
2018-07-02T03:22:00.960Z,96.00
2018-07-02T03:24:29.954Z,96.30
2018-07-02T03:26:58.988Z,95.80
2018-07-02T03:29:28.068Z,95.60
2018-07-02T03:31:57.091Z,95.40
2018-07-02T03:34:26.146Z,95.50
2018-07-02T03:36:55.191Z,95.80
2018-07-02T03:39:24.201Z,95.60
2018-07-02T03:41:53.329Z,95.50
2018-07-02T03:44:22.324Z,94.90
2018-07-02T03:46:51.321Z,94.70
2018-07-02T03:49:20.376Z,94.40
2018-07-02T03:51:49.363Z,93.60
2018-07-02T03:54:18.432Z,92.60
2018-07-02T03:56:47.437Z,92.20
2018-07-02T04:01:45.137Z,91.00
2018-07-02T04:04:14.176Z,88.50
2018-07-02T04:06:43.297Z,82.80
2018-07-02T04:09:13.609Z,81.00
2018-07-02T04:11:42.643Z,80.30
2018-07-02T04:14:11.710Z,80.80
2018-07-02T04:16:40.710Z,83.40
2018-07-02T04:19:10.760Z,86.30
2018-07-02T04:21:41.592Z,87.90
2018-07-02T04:24:10.712Z,90.00
2018-07-02T04:26:41.635Z,90.80
2018-07-02T04:29:11.093Z,91.40
2018-07-02T04:31:40.097Z,91.90
2018-07-02T04:34:09.145Z,92.00
2018-07-02T04:36:38.189Z,92.20
2018-07-02T04:39:08.397Z,92.10
2018-07-02T04:41:37.757Z,92.40
2018-07-02T04:44:07.412Z,92.30
2018-07-02T04:46:36.438Z,92.00
2018-07-02T04:49:05.470Z,91.30
2018-07-02T04:54:03.225Z,90.70
2018-07-02T04:56:32.228Z,90.60
2018-07-02T04:59:01.317Z,90.40
2018-07-02T05:01:30.366Z,90.00
2018-07-02T05:03:59.377Z,90.10
2018-07-02T05:06:28.373Z,90.50
2018-07-02T05:08:57.361Z,89.80
2018-07-02T05:11:26.377Z,89.50
2018-07-02T05:13:55.365Z,89.30
2018-07-02T05:16:24.390Z,89.50
2018-07-02T05:18:53.721Z,88.00
2018-07-02T05:21:22.696Z,87.30
2018-07-02T05:23:51.824Z,87.90
2018-07-02T05:26:20.813Z,88.50
2018-07-02T05:28:50.160Z,88.20
2018-07-02T05:31:19.172Z,87.80
2018-07-02T05:33:48.145Z,87.00
2018-07-02T05:36:17.490Z,86.40
2018-07-02T05:38:46.479Z,85.70
2018-07-02T05:41:15.473Z,85.30
2018-07-02T05:43:44.483Z,84.20
2018-07-02T05:46:13.477Z,85.20
2018-07-02T05:48:42.499Z,84.30
2018-07-02T05:51:11.661Z,84.00
2018-07-02T05:53:40.712Z,82.50
2018-07-02T05:56:09.781Z,83.00
2018-07-02T06:01:07.813Z,82.70
2018-07-02T06:03:36.800Z,82.50
2018-07-02T06:06:05.833Z,82.00
2018-07-02T06:08:34.826Z,81.80
2018-07-02T06:11:03.796Z,82.10
2018-07-02T06:13:32.825Z,81.70
2018-07-02T06:16:01.925Z,81.90
2018-07-02T06:18:30.899Z,81.00
2018-07-02T06:20:59.969Z,80.30
2018-07-02T06:23:28.991Z,80.30
2018-07-02T06:25:58.041Z,79.70
2018-07-02T06:28:27.024Z,76.90
2018-07-02T06:30:56.024Z,76.90
2018-07-02T06:33:25.341Z,75.90
2018-07-02T06:35:54.330Z,74.90
2018-07-02T06:38:23.309Z,75.50
2018-07-02T06:40:52.354Z,75.70
2018-07-02T06:43:21.439Z,74.50
2018-07-02T06:45:50.441Z,71.70
2018-07-02T06:48:19.482Z,71.90
2018-07-02T06:50:48.469Z,72.00
2018-07-02T06:53:17.448Z,72.70
2018-07-02T06:55:46.472Z,73.40
2018-07-02T06:58:15.521Z,73.00
2018-07-02T07:00:44.532Z,72.50
2018-07-02T07:03:13.565Z,72.50
2018-07-02T07:05:42.547Z,73.00
2018-07-02T07:08:11.942Z,72.40
2018-07-02T07:10:40.928Z,72.60
2018-07-02T07:13:09.908Z,69.50
2018-07-02T07:15:38.932Z,70.60
2018-07-02T07:18:08.029Z,69.80
2018-07-02T07:20:37.044Z,68.30
2018-07-02T07:23:06.065Z,67.70
2018-07-02T07:25:35.092Z,67.50
2018-07-02T07:28:04.074Z,68.70
2018-07-02T07:30:33.057Z,69.30
2018-07-02T07:33:02.085Z,67.20
2018-07-02T07:35:31.100Z,67.00
2018-07-02T07:38:00.083Z,67.60
2018-07-02T07:40:29.108Z,67.30
2018-07-02T07:42:58.143Z,66.90
2018-07-02T07:45:27.158Z,67.50
2018-07-02T07:47:56.142Z,67.00
2018-07-02T07:50:25.161Z,67.20
2018-07-02T07:52:54.149Z,66.60
2018-07-02T07:55:23.169Z,67.00
2018-07-02T07:57:52.144Z,67.60
2018-07-02T08:00:21.193Z,66.10
2018-07-02T08:02:50.183Z,65.80
2018-07-02T08:05:19.204Z,66.20
2018-07-02T08:07:48.181Z,62.80
2018-07-02T08:10:17.171Z,65.50
2018-07-02T08:12:46.196Z,65.50
2018-07-02T08:15:15.183Z,62.80
2018-07-02T08:17:44.168Z,63.90
2018-07-02T08:20:13.214Z,63.80
2018-07-02T08:22:42.200Z,63.40
2018-07-02T08:25:11.426Z,64.00
2018-07-02T08:27:40.413Z,61.90
2018-07-02T08:30:09.392Z,63.10
2018-07-02T08:32:38.421Z,62.30
2018-07-02T08:35:07.581Z,62.20
2018-07-02T08:37:36.613Z,61.20
2018-07-02T08:40:05.604Z,61.30
2018-07-02T08:42:34.592Z,61.10
2018-07-02T08:45:03.779Z,61.70
2018-07-02T08:47:32.757Z,62.90
2018-07-02T08:50:01.746Z,63.80
2018-07-02T08:52:30.769Z,62.10
2018-07-02T08:54:59.769Z,60.00
2018-07-02T08:57:28.755Z,60.80
2018-07-02T08:59:57.777Z,58.90
2018-07-02T09:02:26.759Z,59.30
2018-07-02T09:04:55.765Z,60.30
2018-07-02T09:07:24.783Z,58.40
2018-07-02T09:09:53.801Z,59.00
2018-07-02T09:12:22.785Z,59.00
2018-07-02T09:14:51.852Z,57.90
2018-07-02T09:17:20.886Z,56.70
2018-07-02T09:19:50.543Z,57.30
2018-07-02T09:22:20.053Z,57.40
2018-07-02T09:24:49.233Z,58.90
2018-07-02T09:27:18.259Z,58.50
2018-07-02T09:29:47.241Z,59.10
2018-07-02T09:34:45.104Z,56.90
2018-07-02T09:37:14.093Z,57.00
2018-07-02T09:39:43.109Z,56.40
2018-07-02T09:42:12.133Z,57.30
2018-07-02T09:44:41.213Z,56.90
2018-07-02T09:47:10.213Z,56.80
2018-07-02T09:49:39.227Z,56.50
2018-07-02T09:52:08.221Z,55.60
2018-07-02T09:54:37.245Z,53.10
2018-07-02T09:57:06.244Z,51.90
2018-07-02T09:59:35.245Z,52.20
2018-07-02T10:02:04.277Z,52.90
2018-07-02T10:04:33.313Z,52.50
2018-07-02T10:07:02.314Z,52.60
2018-07-02T10:09:31.302Z,51.20
2018-07-02T10:12:00.333Z,52.50
2018-07-02T10:14:29.361Z,54.90
2018-07-02T10:16:58.391Z,54.70
2018-07-02T10:19:27.737Z,54.80
2018-07-02T10:21:56.730Z,51.60
2018-07-02T10:24:25.713Z,51.40
2018-07-02T10:26:54.736Z,51.60
2018-07-02T10:29:23.763Z,50.90
2018-07-02T10:31:52.779Z,51.00
2018-07-02T10:34:21.803Z,50.60
2018-07-02T10:36:50.781Z,50.60
2018-07-02T10:39:19.811Z,50.80
2018-07-02T10:41:48.800Z,51.50
2018-07-02T10:44:17.856Z,52.90
2018-07-02T10:46:46.843Z,53.40
2018-07-02T10:49:16.018Z,54.20
2018-07-02T10:51:45.016Z,54.90
2018-07-02T10:54:14.261Z,54.60
2018-07-02T10:56:43.308Z,55.10
2018-07-02T10:59:12.313Z,55.30
2018-07-02T11:01:41.343Z,55.80
2018-07-02T11:04:10.320Z,54.20
2018-07-02T11:06:39.364Z,54.70
2018-07-02T11:09:09.010Z,53.60
2018-07-02T11:11:37.992Z,54.10
2018-07-02T11:14:07.012Z,51.60
2018-07-02T11:16:36.005Z,51.30
2018-07-02T11:19:05.098Z,51.30
2018-07-02T11:21:34.112Z,50.10
2018-07-02T11:24:03.137Z,48.70
2018-07-02T11:26:32.133Z,46.90
2018-07-02T11:29:01.152Z,46.60
2018-07-02T11:31:30.137Z,44.90
2018-07-02T11:33:59.162Z,44.50
2018-07-02T11:36:28.468Z,45.10
2018-07-02T11:38:57.480Z,46.40
2018-07-02T11:41:26.473Z,47.90
2018-07-02T11:43:55.500Z,48.20
2018-07-02T11:46:24.990Z,47.40
2018-07-02T11:48:53.969Z,48.10
2018-07-02T11:51:23.021Z,46.70
2018-07-02T11:53:52.008Z,47.60
2018-07-02T11:56:21.024Z,46.70
2018-07-02T11:58:50.049Z,45.30
2018-07-02T12:01:19.040Z,43.80
2018-07-02T12:03:48.054Z,43.30
2018-07-02T12:06:17.117Z,43.90
2018-07-02T12:08:46.107Z,45.30
2018-07-02T12:11:15.172Z,44.50
2018-07-02T12:13:44.337Z,46.00
2018-07-02T12:16:13.356Z,46.20
2018-07-02T12:18:42.351Z,46.50
2018-07-02T12:21:11.328Z,47.10
2018-07-02T12:23:40.393Z,47.00
2018-07-02T12:26:09.420Z,47.40
2018-07-02T12:28:38.397Z,47.80
2018-07-02T12:31:07.426Z,45.60
2018-07-02T12:33:36.465Z,44.80
2018-07-02T12:36:06.127Z,45.30
2018-07-02T12:38:35.421Z,46.00
2018-07-02T12:41:04.487Z,46.50
2018-07-02T12:43:33.445Z,47.40
2018-07-02T12:46:02.478Z,47.40
2018-07-02T12:48:31.465Z,47.80
2018-07-02T12:51:00.497Z,48.00
2018-07-02T12:53:29.497Z,46.70
2018-07-02T12:55:58.481Z,46.80
2018-07-02T12:58:27.590Z,44.70
2018-07-02T13:00:56.625Z,40.30
2018-07-02T13:03:25.604Z,40.40
2018-07-02T13:05:54.601Z,41.50
2018-07-02T13:08:23.627Z,41.10
2018-07-02T13:10:52.653Z,41.50
2018-07-02T13:13:21.674Z,41.50
2018-07-02T13:15:50.692Z,41.40
2018-07-02T13:18:19.955Z,41.40
2018-07-02T13:20:48.949Z,42.60
2018-07-02T13:23:17.944Z,42.80
2018-07-02T13:25:47.065Z,42.10
2018-07-02T13:28:16.049Z,43.20
2018-07-02T13:30:45.293Z,43.00
2018-07-02T13:33:14.329Z,42.80
2018-07-02T13:35:43.324Z,44.40
2018-07-02T13:38:12.347Z,43.80
2018-07-02T13:40:41.363Z,43.70
2018-07-02T13:43:10.588Z,42.40
2018-07-02T13:45:39.648Z,42.40
2018-07-02T13:48:08.687Z,41.30
2018-07-02T13:50:43.437Z,43.30
2018-07-02T13:53:12.460Z,43.20
2018-07-02T13:55:41.488Z,42.00
2018-07-02T13:58:10.540Z,41.20
2018-07-02T14:03:08.201Z,41.00
2018-07-02T14:05:37.200Z,37.80
2018-07-02T14:08:06.216Z,38.60
2018-07-02T14:10:35.240Z,37.80
2018-07-02T14:13:04.317Z,38.40
2018-07-02T14:15:33.313Z,39.10
2018-07-02T14:18:02.373Z,40.20
2018-07-02T14:20:31.405Z,40.40
2018-07-02T14:23:00.389Z,41.70
2018-07-02T14:25:29.433Z,41.80
2018-07-02T14:27:58.426Z,41.80
2018-07-02T14:30:27.448Z,40.10
2018-07-02T14:32:56.460Z,38.90
2018-07-02T14:35:25.474Z,39.30
2018-07-02T14:37:54.750Z,37.00
2018-07-02T14:40:23.774Z,37.30
2018-07-02T14:42:52.852Z,38.80
2018-07-02T14:45:21.941Z,39.70
2018-07-02T14:47:51.200Z,39.40
2018-07-02T14:50:20.197Z,40.20
2018-07-02T14:52:49.324Z,39.70
2018-07-02T14:55:18.364Z,39.30
2018-07-02T14:57:47.765Z,39.40
2018-07-02T15:00:16.748Z,36.90
2018-07-02T15:02:45.728Z,38.60
2018-07-02T15:05:14.757Z,36.90
2018-07-02T15:07:43.777Z,37.00
2018-07-02T15:10:12.815Z,35.00
2018-07-02T15:12:41.868Z,32.90
2018-07-02T15:15:10.861Z,32.70
2018-07-02T15:17:39.943Z,32.70
2018-07-02T15:20:08.969Z,30.40
2018-07-02T15:22:37.961Z,31.90
2018-07-02T15:27:35.608Z,30.00
2018-07-02T15:30:04.866Z,30.60
2018-07-02T15:32:33.901Z,30.40
2018-07-02T15:35:03.024Z,29.40
2018-07-02T15:37:32.060Z,30.00
2018-07-02T15:40:01.253Z,30.20
2018-07-02T15:42:30.268Z,33.10
2018-07-02T15:44:59.932Z,35.60
2018-07-02T15:47:29.060Z,37.10
2018-07-02T15:49:58.188Z,38.80
2018-07-02T15:52:27.301Z,38.00
2018-07-02T15:54:56.285Z,38.40
2018-07-02T15:57:25.366Z,39.00
2018-07-02T15:59:54.387Z,39.60
2018-07-02T16:02:23.384Z,39.60
2018-07-02T16:04:52.544Z,38.80
2018-07-02T16:07:21.738Z,37.20
2018-07-02T16:09:50.733Z,32.80
2018-07-02T16:12:19.860Z,30.10
2018-07-02T16:14:48.857Z,28.50
2018-07-02T16:17:17.981Z,27.90
2018-07-02T16:19:47.048Z,30.00
2018-07-02T16:24:44.807Z,29.70
2018-07-02T16:27:14.100Z,31.90
2018-07-02T16:29:43.084Z,32.20
2018-07-02T16:32:12.109Z,34.10
2018-07-02T16:34:41.088Z,35.00
2018-07-02T16:37:10.221Z,35.20
2018-07-02T16:39:39.209Z,35.60
2018-07-02T16:42:08.186Z,36.40
2018-07-02T16:44:37.213Z,36.40
2018-07-02T16:47:06.236Z,36.80
2018-07-02T16:49:35.342Z,37.50
2018-07-02T16:52:04.465Z,37.70
2018-07-02T16:54:33.461Z,38.50
2018-07-02T16:57:02.498Z,38.30
2018-07-02T16:59:31.536Z,38.10
2018-07-02T17:02:01.344Z,38.20
2018-07-02T17:04:30.364Z,37.60
2018-07-02T17:06:59.357Z,38.00
2018-07-02T17:09:28.421Z,38.10
2018-07-02T17:11:57.407Z,38.30
2018-07-02T17:14:26.413Z,38.90
2018-07-02T17:16:55.428Z,39.20
2018-07-02T17:19:24.429Z,39.30
2018-07-02T17:21:53.564Z,38.60
2018-07-02T17:24:22.596Z,39.20
2018-07-02T17:26:51.621Z,39.20
2018-07-02T17:29:20.605Z,39.10
2018-07-02T17:31:49.624Z,39.80
2018-07-02T17:34:18.713Z,40.10
2018-07-02T17:36:47.737Z,39.90
2018-07-02T17:39:16.890Z,40.00
2018-07-02T17:41:45.909Z,40.20
2018-07-02T17:44:14.954Z,40.20
2018-07-02T17:46:44.015Z,40.20
2018-07-02T17:49:13.075Z,39.60
2018-07-02T17:51:42.134Z,38.90
2018-07-02T17:54:11.267Z,38.90
2018-07-02T17:56:40.382Z,37.10
2018-07-02T17:59:09.542Z,36.10
2018-07-02T18:01:38.643Z,36.80
2018-07-02T18:04:07.688Z,37.40
2018-07-02T18:06:36.934Z,38.60
2018-07-02T18:09:08.984Z,39.80
2018-07-02T18:11:38.479Z,41.60
2018-07-02T18:14:07.693Z,41.40
2018-07-02T18:16:36.835Z,41.70
2018-07-02T18:19:06.172Z,42.40
2018-07-02T18:21:35.518Z,42.80
2018-07-02T18:24:04.576Z,43.30
2018-07-02T18:26:33.585Z,42.90
2018-07-02T18:29:02.653Z,43.10
2018-07-02T18:31:31.711Z,42.50
2018-07-02T18:34:00.719Z,41.90
2018-07-02T18:36:29.760Z,41.90
2018-07-02T18:38:58.801Z,42.70
2018-07-02T18:41:28.148Z,42.90
2018-07-02T18:43:57.173Z,43.40
2018-07-02T18:46:26.216Z,44.40
2018-07-02T18:48:55.384Z,45.30
2018-07-02T18:51:24.409Z,45.60
2018-07-02T18:53:53.424Z,46.40
2018-07-02T18:56:22.553Z,47.90
2018-07-02T18:58:51.607Z,48.60
2018-07-02T19:01:20.881Z,49.80
2018-07-02T19:03:49.988Z,50.40
2018-07-02T19:06:19.026Z,51.20
2018-07-02T19:08:48.090Z,51.90
2018-07-02T19:11:17.146Z,52.70
2018-07-02T19:13:46.419Z,53.50
2018-07-02T19:16:15.475Z,53.80
2018-07-02T19:18:46.922Z,54.70
2018-07-02T19:21:16.085Z,55.50
2018-07-02T19:23:45.288Z,56.20
2018-07-02T19:26:14.336Z,56.50
2018-07-02T19:28:43.376Z,57.80
2018-07-02T19:31:12.400Z,58.40
2018-07-02T19:33:41.393Z,59.10
2018-07-02T19:36:10.420Z,59.20
2018-07-02T19:38:39.591Z,59.40
2018-07-02T19:41:08.610Z,59.90
2018-07-02T19:43:37.584Z,60.20
2018-07-02T19:46:07.313Z,61.50
2018-07-02T19:48:36.448Z,62.00
2018-07-02T19:51:05.449Z,62.20
2018-07-02T19:56:03.171Z,63.70
2018-07-02T19:58:32.345Z,63.50
2018-07-02T20:01:01.352Z,63.00
2018-07-02T20:03:30.380Z,62.70
2018-07-02T20:05:59.407Z,63.50
2018-07-02T20:08:28.424Z,64.10
2018-07-02T20:10:57.420Z,65.40
2018-07-02T20:13:26.702Z,65.20
2018-07-02T20:15:55.783Z,65.30
2018-07-02T20:18:24.817Z,65.70
2018-07-02T20:20:54.329Z,66.40
2018-07-02T20:23:23.318Z,67.30
2018-07-02T20:25:52.303Z,67.90
2018-07-02T20:28:21.391Z,68.70
2018-07-02T20:30:50.413Z,69.90
2018-07-02T20:33:19.445Z,72.30
2018-07-02T20:35:48.433Z,72.40
2018-07-02T20:38:17.510Z,72.50
2018-07-02T20:40:46.525Z,73.00
2018-07-02T20:43:15.540Z,72.90
2018-07-02T20:45:44.622Z,73.60
2018-07-02T20:48:13.640Z,75.00
2018-07-02T20:50:42.753Z,75.40
2018-07-02T20:53:11.737Z,75.90
2018-07-02T20:55:40.731Z,76.40
2018-07-02T20:58:09.916Z,77.40
2018-07-02T21:00:38.896Z,77.50
2018-07-02T21:03:07.882Z,78.20
2018-07-02T21:05:36.985Z,79.20
2018-07-02T21:08:06.284Z,80.30
2018-07-02T21:10:35.351Z,81.10
2018-07-02T21:13:04.388Z,81.80
2018-07-02T21:15:33.381Z,81.40
2018-07-02T21:18:02.409Z,81.90
2018-07-02T21:20:31.453Z,81.90
2018-07-02T21:23:00.469Z,82.20
2018-07-02T21:25:29.492Z,81.50
2018-07-02T21:27:58.512Z,81.70
2018-07-02T21:30:27.493Z,81.40
2018-07-02T21:32:56.564Z,83.00
2018-07-02T21:35:25.565Z,82.50
2018-07-02T21:37:54.579Z,82.90
2018-07-02T21:40:23.841Z,82.40
2018-07-02T21:42:52.845Z,82.90
2018-07-02T21:45:21.831Z,83.70
2018-07-02T21:47:51.059Z,85.00
2018-07-02T21:50:20.054Z,85.70
2018-07-02T21:52:49.041Z,86.30
2018-07-02T21:55:18.060Z,86.30
2018-07-02T21:57:47.044Z,86.40
2018-07-02T22:00:16.165Z,86.60
2018-07-02T22:02:45.190Z,87.40
2018-07-02T22:05:14.175Z,88.70
2018-07-02T22:07:43.517Z,89.90
2018-07-02T22:10:12.533Z,90.20
2018-07-02T22:12:41.524Z,90.30
2018-07-02T22:15:10.556Z,90.40
2018-07-02T22:17:39.573Z,90.50
2018-07-02T22:20:08.708Z,90.70
2018-07-02T22:22:37.733Z,90.70
2018-07-02T22:25:06.715Z,90.90
2018-07-02T22:27:35.740Z,90.60
2018-07-02T22:30:04.737Z,90.50
2018-07-02T22:32:33.733Z,90.50
2018-07-02T22:35:02.755Z,90.60
2018-07-02T22:37:31.735Z,90.60
2018-07-02T22:40:00.753Z,90.30
2018-07-02T22:42:29.739Z,90.50
2018-07-02T22:44:58.763Z,90.60
2018-07-02T22:47:27.859Z,90.80
2018-07-02T22:49:56.893Z,91.10
2018-07-02T22:52:25.980Z,91.80
2018-07-02T22:54:54.981Z,91.70
2018-07-02T22:57:24.145Z,91.50
2018-07-02T22:59:53.150Z,91.40
2018-07-02T23:02:22.132Z,91.10
2018-07-02T23:04:51.318Z,91.00
2018-07-02T23:07:20.575Z,90.60
2018-07-02T23:09:49.568Z,89.90
2018-07-02T23:12:18.556Z,88.60
2018-07-02T23:14:47.789Z,88.20
2018-07-02T23:17:16.769Z,88.10
2018-07-02T23:19:45.790Z,88.30
2018-07-02T23:22:14.821Z,88.80
2018-07-02T23:24:44.868Z,89.00
2018-07-02T23:27:13.892Z,89.20
2018-07-02T23:29:42.919Z,88.10
2018-07-02T23:32:11.900Z,88.50
2018-07-02T23:34:40.941Z,88.60
2018-07-02T23:37:09.925Z,88.40
2018-07-02T23:39:38.952Z,88.90
2018-07-02T23:42:07.981Z,89.30
2018-07-02T23:44:37.004Z,89.90
2018-07-02T23:47:06.045Z,89.90
2018-07-02T23:49:35.140Z,91.80
2018-07-02T23:52:04.177Z,92.00
2018-07-02T23:54:33.169Z,91.90
2018-07-02T23:57:02.159Z,91.50
